KOGB

Orangeburg Municipal Airport

Orangeburg, South Carolina, USA
METAR KOGB 191653Z AUTO 23011KT 10SM FEW022 28/22 A3000 RMK AO2 SLP157 T02830222
Observed Flight Rules
Aug-19 @ 16:53 UTC (19 minutes ago) Visual Flight Rules
Wind Visibility Clouds
230° at 11 knots 10 miles
  • Few at 2,200' AGL
Temperatures Readings
Current 28°C / 82°F
Dewpoint 22°C / 72°F
Humidity 70%
Altimeter 30" Hg
Pressure 1015.7 hPa
Elevation 59
METAR KOGB 191653Z AUTO 23011KT 10SM FEW022 28/22 A3000 RMK AO2 SLP157 T02830222
Observed Flight Rules
Aug-19 @ 16:53 UTC
(19 minutes ago)
VFR
Wind Visibility
230° at 11 knots 10 miles
Clouds
  • Few at 2,200' AGL
Temperature Dewpoint
28°C / 82°F 22°C / 72°F
Humidity Altimeter Pressure
70% 30" Hg 1015.7 hPa